Boca Raton, Florida
Current Conditions -  °F | °C
As of 10:53 PM on Friday 24 Oct 2014 (Local Time) from KBCT Reporting Station
Overcast Overcast  
Wind Chill: 77°   Ceiling: 3600
Heat Index: 79°   Visibility: 10mi
Dew Point: 68°   Wind: 12mph
Humidity: 74%   Direction: 50°NE
Pressure: 29.88"   Gusts: 17mph
Location:  26.35°N, 80.09°W
Report Text: KBCT 250253Z 05010G15KT 10SM SCT030 BKN036 OVC043 25/20 A2988 RMK LAST
Loading
Personal Weather Stations






























Interactive Weather Map
Tropical Storm Tracking
New forecast layout! Learn more

10-Day Weather Forecast

Advertisements
Track Severe Weather on mobile